Latest Weather Observations for Gold Coast Seaway

IDQ60801

Issued at 10:12 am EST Wednesday 16 January 2019 (issued every 10 minutes, with the page automatically refreshed every 10 minutes)

About weather observations | Map of weather stations | Latest weather observations for QLD | Other Formats
Station Details ID: 040764 Name: GOLD COAST SEAWAY Lat: -27.94 Lon: 153.43 Height: 2.98 m
Data from the previous 72 hours. | See also: Recent months at Gold Coast Seaway
Date/Time
EST
Temp
°C
App
Temp
°C
Dew
Point
°C
Rel
Hum
%
Delta-T
°C
Wind Press
QNH
hPa
Press
MSL
hPa
Rain since
9am
mm
Dir  Spd
km/h
Gust
km/h
Spd
kts
Gust
kts
16/10:00am 28.4 29.7 22.4 70 4.1 NE 19 20 10 11 1014.4 1014.4 0.0
16/09:30am 28.9 31.3 22.9 70 4.1 NE 15 17 8 9 1014.5 1014.5 0.0
16/09:00am 28.4 30.9 22.4 70 4.1 NE 13 17 7 9 1014.5 1014.5 0.0
16/08:30am 27.6 30.2 21.9 71 3.8 NNE 11 15 6 8 1014.5 1014.5 0.0
16/08:00am 26.4 28.0 20.7 71 3.7 NNE 13 17 7 9 1014.6 1014.6 0.0
16/07:30am 25.6 27.5 20.6 74 3.3 NNW 11 17 6 9 1014.7 1014.7 0.0
16/07:00am 25.0 27.2 20.5 76 2.9 NW 9 13 5 7 1014.7 1014.7 0.0
16/06:30am 24.1 26.3 20.4 80 2.4 W 9 11 5 6 1014.5 1014.5 0.0
16/06:00am 23.1 25.3 20.4 85 1.7 WNW 9 11 5 6 1014.0 1014.0 0.0
16/05:30am 22.1 24.2 20.2 89 1.2 WNW 9 11 5 6 1013.6 1013.6 0.0
16/05:00am 21.8 23.8 19.9 89 1.2 W 9 11 5 6 1013.4 1013.4 0.0
16/04:30am 22.1 24.2 20.2 89 1.2 WNW 9 11 5 6 1013.1 1013.1 0.0
16/04:00am 22.6 24.8 20.5 88 1.4 NW 9 11 5 6 1013.0 1013.0 0.0
16/03:30am 22.7 25.3 20.4 87 1.5 NW 7 9 4 5 1012.9 1012.9 0.0
16/03:00am 23.1 25.6 20.2 84 1.9 NW 7 13 4 7 1012.9 1012.9 0.0
16/02:30am 23.8 25.3 20.5 82 2.1 NNE 13 15 7 8 1013.0 1013.0 0.0
16/02:00am 23.9 25.1 20.6 82 2.2 NNE 15 19 8 10 1013.1 1013.1 0.0
16/01:30am 23.9 25.1 20.6 82 2.2 NNE 15 19 8 10 1013.5 1013.5 0.0
16/01:00am 23.9 25.0 20.4 81 2.3 NNE 15 17 8 9 1013.9 1013.9 0.0
16/12:30am 24.1 24.9 20.6 81 2.3 NNE 17 19 9 10 1014.3 1014.3 0.0
16/12:00am 24.4 25.2 20.7 80 2.4 NNE 17 19 9 10 1014.5 1014.5 0.0
 
Date/Time
EST
Temp
°C
App
Temp
°C
Dew
Point
°C
Rel
Hum
%
Delta-T
°C
Wind Press
QNH
hPa
Press
MSL
hPa
Rain since
9am
mm
Dir  Spd
km/h
Gust
km/h
Spd
kts
Gust
kts
15/11:30pm 24.5 25.4 20.8 80 2.4 NNE 17 19 9 10 1014.8 1014.8 0.0
15/11:00pm 24.7 25.2 20.8 79 2.6 NNE 19 20 10 11 1015.0 1015.0 0.0
15/10:30pm 25.1 25.6 21.2 79 2.6 NE 20 24 11 13 1014.9 1014.9 0.0
15/10:00pm 25.2 25.9 21.5 80 2.5 NE 20 24 11 13 1015.0 1015.0 0.0
15/09:30pm 25.3 25.9 21.4 79 2.6 NE 20 24 11 13 1015.0 1015.0 0.0
15/09:00pm 25.5 26.4 21.6 79 2.6 NE 19 22 10 12 1015.1 1015.1 0.0
15/08:30pm 25.4 26.5 21.3 78 2.7 NE 17 20 9 11 1015.1 1015.1 0.0
15/08:00pm 25.5 27.1 22.2 82 2.2 NE 17 20 9 11 1015.0 1015.0 0.0
15/07:30pm 25.4 26.6 22.1 82 2.2 NE 19 22 10 12 1014.6 1014.6 0.0
15/07:00pm 25.5 26.6 22.4 83 2.1 NE 20 24 11 13 1014.4 1014.4 0.0
15/06:30pm 25.8 27.1 22.3 81 2.3 NE 19 20 10 11 1014.0 1014.0 0.0
15/06:00pm 26.1 27.1 21.7 77 2.9 NE 19 22 10 12 1013.8 1013.8 0.0
15/05:30pm 26.5 27.4 21.5 74 3.3 NE 19 22 10 12 1013.5 1013.5 0.0
15/05:00pm 26.7 27.4 21.5 73 3.5 NE 20 24 11 13 1013.3 1013.3 0.0
15/04:30pm 27.1 27.8 21.6 72 3.7 NE 20 26 11 14 1013.2 1013.2 0.0
15/04:00pm 27.6 28.6 22.1 72 3.7 NE 20 26 11 14 1013.2 1013.2 0.0
15/03:30pm 27.6 28.2 21.4 69 4.1 NE 20 24 11 13 1013.5 1013.5 0.0
15/03:00pm 28.2 29.3 22.4 71 3.9 NE 20 24 11 13 1013.8 1013.8 0.0
15/02:30pm 28.2 28.6 21.7 68 4.4 NE 22 26 12 14 1014.1 1014.1 0.0
15/02:00pm 28.3 29.1 21.8 68 4.4 NE 20 26 11 14 1014.4 1014.4 0.0
15/01:30pm 28.3 29.1 21.8 68 4.4 NE 20 26 11 14 1014.6 1014.6 0.0
15/01:00pm 28.4 29.2 21.7 67 4.5 NE 20 24 11 13 1014.9 1014.9 0.0
15/12:30pm 29.1 30.1 22.1 66 4.7 NE 20 26 11 14 1015.3 1015.3 0.0
15/12:00pm 29.0 30.2 22.5 68 4.4 ENE 20 24 11 13 1015.5 1015.5 0.0
15/11:30am 29.4 30.8 22.6 67 4.6 NE 19 22 10 12 1016.0 1016.0 0.0
15/11:00am 28.8 30.4 22.1 67 4.5 ENE 17 19 9 10 1016.4 1016.4 0.0
15/10:30am 28.5 31.0 22.5 70 4.1 E 13 17 7 9 1016.7 1016.7 0.0
15/10:00am 27.8 30.2 22.3 72 3.7 E 13 17 7 9 1016.9 1016.9 0.0
15/09:30am 28.7 31.8 23.6 74 3.5 ESE 13 15 7 8 1017.0 1017.0 0.0
15/09:00am 27.8 31.0 23.0 75 3.3 SE 11 15 6 8 1017.1 1017.1 0.0
15/08:30am 27.4 30.7 23.2 78 2.9 SE 11 15 6 8 1016.9 1016.9 0.0
15/08:00am 27.4 31.1 23.2 78 2.9 SSE 9 11 5 6 1016.9 1016.9 0.0
15/07:30am 25.9 29.1 22.4 81 2.4 SSE 9 11 5 6 1016.9 1016.9 0.0
15/07:00am 24.9 27.7 21.6 82 2.2 S 9 11 5 6 1016.8 1016.8 0.0
15/06:30am 24.0 26.7 21.3 85 1.8 SSW 9 11 5 6 1016.6 1016.6 0.0
15/06:00am 22.8 25.3 21.1 90 1.1 SSW 9 11 5 6 1016.4 1016.4 0.0
15/05:30am 22.1 24.4 20.7 92 0.9 SW 9 11 5 6 1016.0 1016.0 0.0
15/05:00am 22.2 24.6 20.8 92 0.9 SW 9 13 5 7 1015.7 1015.7 0.0
15/04:30am 22.4 24.7 20.7 90 1.1 SW 9 11 5 6 1015.3 1015.3 0.0
15/04:00am 22.7 25.1 20.8 89 1.2 SW 9 11 5 6 1015.0 1015.0 0.0
15/03:30am 23.1 25.2 21.0 88 1.4 WSW 11 13 6 7 1015.1 1015.1 0.0
15/03:00am 22.8 25.0 20.5 87 1.5 S 9 11 5 6 1015.1 1015.1 0.0
15/02:30am 23.3 25.7 20.8 86 1.6 ESE 9 13 5 7 1015.3 1015.3 0.0
15/02:00am 23.8 26.5 21.3 86 1.6 ESE 9 11 5 6 1015.4 1015.4 0.0
15/01:30am 24.0 27.0 21.9 88 1.4 ESE 9 13 5 7 1015.6 1015.6 0.0
15/01:00am 24.0 26.4 21.5 86 1.6 ESE 11 13 6 7 1016.0 1016.0 0.0
15/12:30am 24.1 26.5 21.6 86 1.7 ESE 11 15 6 8 1016.1 1016.1 0.0
15/12:00am 24.1 26.0 21.4 85 1.8 ESE 13 15 7 8 1016.4 1016.4 0.0
 
Date/Time
EST
Temp
°C
App
Temp
°C
Dew
Point
°C
Rel
Hum
%
Delta-T
°C
Wind Press
QNH
hPa
Press
MSL
hPa
Rain since
9am
mm
Dir  Spd
km/h
Gust
km/h
Spd
kts
Gust
kts
14/11:30pm 24.3 26.5 21.8 86 1.7 ESE 13 15 7 8 1016.6 1016.6 0.0
14/11:00pm 24.3 25.5 21.4 84 1.9 E 17 19 9 10 1016.8 1016.8 0.0
14/10:30pm 24.4 25.5 21.3 83 2.0 ESE 17 20 9 11 1017.1 1017.1 0.0
14/10:00pm 24.5 25.8 21.6 84 1.9 ESE 17 20 9 11 1017.2 1017.2 0.0
14/09:30pm 24.6 24.9 21.5 83 2.1 ESE 22 26 12 14 1017.3 1017.3 0.0
14/09:00pm 24.6 24.6 21.7 84 1.9 ESE 24 28 13 15 1017.2 1017.2 0.0
14/08:30pm 24.8 24.6 22.1 85 1.8 ESE 26 30 14 16 1017.2 1017.2 0.0
14/08:00pm 24.8 25.0 22.1 85 1.8 ESE 24 28 13 15 1016.9 1016.9 0.0
14/07:30pm 25.0 24.9 22.3 85 1.8 ESE 26 30 14 16 1016.8 1016.8 0.0
14/07:00pm 25.0 24.7 22.5 86 1.7 SE 28 33 15 18 1016.7 1016.7 0.0
14/06:30pm 25.2 24.2 21.9 82 2.2 SE 30 33 16 18 1016.5 1016.5 0.0
14/06:00pm 25.8 24.9 22.1 80 2.5 SE 30 33 16 18 1016.1 1016.1 0.0
14/05:30pm 26.5 26.0 22.1 77 3.0 SE 28 33 15 18 1015.8 1015.8 0.0
14/05:00pm 27.0 26.1 22.2 75 3.2 SE 30 33 16 18 1015.7 1015.7 0.0
14/04:30pm 27.8 27.0 23.0 75 3.3 SE 32 35 17 19 1015.5 1015.5 0.0
14/04:00pm 27.8 26.6 22.3 72 3.7 SE 32 35 17 19 1015.6 1015.6 0.0
14/03:30pm 28.6 27.7 22.8 71 3.9 SE 32 35 17 19 1015.7 1015.7 0.0
14/03:00pm 28.8 27.9 23.2 71 3.8 SE 33 37 18 20 1015.8 1015.8 0.0
14/02:30pm 29.3 28.7 23.3 70 4.1 SE 32 37 17 20 1016.2 1016.2 0.0
14/02:00pm 29.8 29.5 23.3 68 4.5 SE 30 33 16 18 1016.5 1016.5 0.0
14/01:30pm 29.3 29.0 22.5 67 4.6 SE 28 33 15 18 1016.7 1016.7 0.0
14/01:00pm 29.9 29.4 22.9 66 4.8 SE 30 33 16 18 1016.8 1016.8 0.0
14/12:30pm 29.9 29.4 22.9 66 4.8 SE 30 33 16 18 1016.9 1016.9 0.0
14/12:00pm 30.2 30.1 22.9 65 5.0 SE 28 32 15 17 1017.3 1017.3 0.0
14/11:30am 29.9 29.3 22.6 65 5.0 SE 30 33 16 18 1017.6 1017.6 0.0
14/11:00am 30.0 29.5 22.9 65 4.8 SE 30 35 16 19 1017.8 1017.8 0.0
14/10:30am 29.5 29.2 22.5 66 4.8 SE 28 33 15 18 1018.0 1018.0 0.0
14/10:00am 29.2 29.0 22.7 68 4.4 SE 28 35 15 19 1018.1 1018.1 0.0
14/09:30am 28.9 28.3 21.9 66 4.7 SE 28 33 15 18 1018.1 1018.1 0.0
14/09:00am 28.6 28.4 22.1 68 4.4 SSE 26 32 14 17 1018.0 1018.0 0.0
14/08:30am 26.5 25.2 20.6 70 3.9 SSE 28 35 15 19 1018.1 1018.1 0.0
14/08:00am 27.1 26.3 21.6 72 3.7 SSE 28 33 15 18 1018.0 1018.0 0.0
14/07:30am 26.1 25.4 21.1 74 3.3 SSE 26 32 14 17 1018.0 1018.0 0.0
14/07:00am 25.4 24.2 20.9 76 3.0 SSE 28 33 15 18 1017.8 1017.8 0.0
14/06:30am 24.0 22.7 20.7 82 2.2 SSE 28 35 15 19 1017.6 1017.6 0.0
14/06:00am 23.4 22.5 20.7 85 1.8 SSE 26 32 14 17 1017.3 1017.3 0.0
14/05:30am 22.3 21.5 20.0 87 1.5 SSE 24 28 13 15 1017.1 1017.1 0.0
14/05:00am 22.6 21.6 20.5 88 1.4 SSE 26 32 14 17 1016.9 1016.9 0.0
14/04:30am 22.8 21.4 20.5 87 1.5 SSE 28 33 15 18 1016.6 1016.6 0.0
14/04:00am 23.0 21.3 20.5 86 1.6 SSE 30 33 16 18 1016.5 1016.5 0.0
14/03:30am 23.1 21.8 20.6 86 1.6 SSE 28 33 15 18 1016.3 1016.3 0.0
14/03:00am 23.4 22.1 20.7 85 1.8 SSE 28 33 15 18 1016.1 1016.1 0.0
14/02:30am 23.4 22.1 20.7 85 1.8 SSE 28 33 15 18 1016.2 1016.2 0.0
14/02:00am 23.5 22.9 20.4 83 2.0 S 24 32 13 17 1016.4 1016.4 0.0
14/01:30am 24.2 22.4 21.1 83 2.0 SE 32 37 17 20 1016.8 1016.8 0.0
14/01:00am 24.1 22.6 21.0 83 2.0 SE 30 35 16 19 1017.1 1017.1 0.0
14/12:30am 24.3 22.4 21.0 82 2.2 SE 32 37 17 20 1017.5 1017.5 0.0
14/12:00am 23.9 23.1 21.6 87 1.5 SSE 28 37 15 20 1017.8 1017.8 0.0
 
Date/Time
EST
Temp
°C
App
Temp
°C
Dew
Point
°C
Rel
Hum
%
Delta-T
°C
Wind Press
QNH
hPa
Press
MSL
hPa
Rain since
9am
mm
Dir  Spd
km/h
Gust
km/h
Spd
kts
Gust
kts
13/11:30pm 24.6 23.0 21.5 83 2.1 SSE 32 43 17 23 1018.1 1018.1 0.0
13/11:00pm 24.3 22.5 21.2 83 2.0 SE 32 35 17 19 1018.2 1018.2 0.0
13/10:30pm 24.4 22.0 21.1 82 2.2 SE 35 39 19 21 1018.3 1018.3 0.0
13/10:00pm 24.6 22.8 21.1 81 2.3 SE 32 39 17 21 1018.4 1018.4 0.0
13/09:30pm 24.4 22.7 21.3 83 2.0 SE 32 37 17 20 1018.5 1018.5 0.0
13/09:00pm 24.4 22.9 20.9 81 2.3 SSE 30 37 16 20 1018.5 1018.5 0.0
13/08:30pm 24.6 22.5 20.9 80 2.4 SE 33 39 18 21 1018.5 1018.5 0.0
13/08:00pm 24.6 22.2 21.1 81 2.3 SE 35 41 19 22 1018.3 1018.3 0.0
13/07:30pm 24.7 22.5 21.4 82 2.2 SE 35 41 19 22 1017.9 1017.9 0.0
13/07:00pm 24.8 22.5 21.3 81 2.3 SE 35 43 19 23 1017.6 1017.6 0.0
13/06:30pm 25.3 23.7 21.8 81 2.3 SE 33 43 18 23 1017.3 1017.3 0.0
13/06:00pm 25.8 23.6 21.5 77 2.9 SE 35 41 19 22 1016.9 1016.9 0.0
13/05:30pm 26.2 23.7 21.6 76 3.1 SE 37 43 20 23 1016.4 1016.4 0.0
13/05:00pm 26.9 25.3 21.9 74 3.3 SE 33 39 18 21 1016.1 1016.1 0.0
13/04:30pm 27.5 25.9 21.8 71 3.8 SE 33 43 18 23 1015.8 1015.8 0.0
13/04:00pm 28.0 26.7 22.5 72 3.7 SE 33 37 18 20 1015.7 1015.7 0.0
13/03:30pm 28.6 27.7 23.1 72 3.8 SE 33 37 18 20 1015.8 1015.8 0.0
13/03:00pm 28.7 28.1 22.7 70 4.1 SE 30 35 16 19 1015.9 1015.9 0.0
13/02:30pm 28.5 27.4 22.5 70 4.1 SE 32 35 17 19 1016.1 1016.1 0.0
13/02:00pm 29.1 28.8 23.3 71 4.0 ESE 30 33 16 18 1016.2 1016.2 0.0
13/01:30pm 29.2 28.3 22.9 69 4.3 SE 32 35 17 19 1016.5 1016.5 0.0
13/01:00pm 29.3 28.8 22.8 68 4.4 SE 30 35 16 19 1016.8 1016.8 0.0
13/12:30pm 29.6 29.4 22.8 67 4.6 SE 28 32 15 17 1017.0 1017.0 0.0
13/12:00pm 29.9 31.1 23.8 70 4.2 SE 24 30 13 16 1017.1 1017.1 0.0
13/11:30am 29.5 31.1 23.2 69 4.3 SE 20 26 11 14 1017.4 1017.4 0.0
13/11:00am 29.6 31.4 23.5 69 4.2 SE 20 26 11 14 1017.6 1017.6 0.0
13/10:30am 29.7 31.9 23.9 71 4.0 SE 19 22 10 12 1017.7 1017.7 0.0

Other Formats:

Comma delimited format used in spreadsheet applications
http://www.bom.gov.au/fwo/IDQ60801/IDQ60801.94580.axf

JavaScript Object Notation format (JSON) in row-major order
http://www.bom.gov.au/fwo/IDQ60801/IDQ60801.94580.json